Estación de Casa Rosada

Ultimos registro cada 15 minutos 65
Estación Fecha / Hora Temperatura Humedad Lluvia Velocidad Dirección Radiación Presion
65 Casa Rosada 04-09-2026 16:00 30,6 15 0 1,3 339 297 1006,8
64 Casa Rosada 04-09-2026 15:45 30,6 15 0 1,3 339 297 1006,8
63 Casa Rosada 04-09-2026 15:30 30,7 16 0 1,3 338 366 1006,9
62 Casa Rosada 04-09-2026 15:15 31,1 15 0 1,8 323 503 1006,9
61 Casa Rosada 04-09-2026 15:00 31,4 14 0 2,2 329 527 1007,1
60 Casa Rosada 04-09-2026 14:45 31,4 14 0 2,2 329 527 1007,1
59 Casa Rosada 04-09-2026 14:30 31,3 14 0 1,8 326 533 1007,2
58 Casa Rosada 04-09-2026 14:15 31,2 14 0 3,6 2 554 1007,3
57 Casa Rosada 04-09-2026 14:00 31,3 13 0 2,7 356 712 1007,5
56 Casa Rosada 04-09-2026 13:45 31,3 13 0 2,7 356 712 1007,5
55 Casa Rosada 04-09-2026 13:30 31,7 12 0 3,1 10 612 1007,9
54 Casa Rosada 04-09-2026 13:15 31,4 12 0 3,1 23 889 1008
53 Casa Rosada 04-09-2026 13:00 30,2 11 0 1,8 315 819 1008,6
52 Casa Rosada 04-09-2026 12:45 30,2 11 0 1,8 315 819 1008,6
51 Casa Rosada 04-09-2026 12:30 30,3 11 0 2,2 324 418 1008,9
50 Casa Rosada 04-09-2026 12:15 30,1 13 0 0,9 342 1011 1009
49 Casa Rosada 04-09-2026 12:00 29,3 12 0 2,7 359 615 1009,6
48 Casa Rosada 04-09-2026 11:45 29,3 12 0 2,7 359 615 1009,6
47 Casa Rosada 04-09-2026 11:30 29,2 13 0 2,2 18 802 1010
46 Casa Rosada 04-09-2026 11:15 28,5 13 0 0 352 784 1010,5
45 Casa Rosada 04-09-2026 11:00 27,5 15 0 0,4 30 747 1011,1
44 Casa Rosada 04-09-2026 10:45 27,5 15 0 0,4 30 747 1011,1
43 Casa Rosada 04-09-2026 10:30 26,8 16 0 0,4 33 649 1011,5
42 Casa Rosada 04-09-2026 10:15 26,1 16 0 0,4 352 613 1012,1
41 Casa Rosada 04-09-2026 10:00 23,8 20 0 0,9 50 538 1013,2
40 Casa Rosada 04-09-2026 09:45 23,8 20 0 0,9 50 538 1013,2
39 Casa Rosada 04-09-2026 09:30 22,8 22 0 0,4 132 492 1013,8
38 Casa Rosada 04-09-2026 09:15 20,9 27 0 0,9 114 445 1014,3
37 Casa Rosada 04-09-2026 09:00 15 39 0 0,4 132 348 1014,3
36 Casa Rosada 04-09-2026 08:45 15 39 0 0,4 132 348 1014,3
35 Casa Rosada 04-09-2026 08:30 12,2 52 0 0,4 144 114 1014,1
34 Casa Rosada 04-09-2026 08:15 11,2 53 0 0,4 146 21 1014
33 Casa Rosada 04-09-2026 08:00 10,8 56 0 0 160 19 1013,7
32 Casa Rosada 04-09-2026 07:45 10,8 56 0 0 160 19 1013,7
31 Casa Rosada 04-09-2026 07:30 10,9 55 0 0,4 167 14 1013,6
30 Casa Rosada 04-09-2026 07:15 10,9 55 0 0,4 167 16 1013,4
29 Casa Rosada 04-09-2026 07:00 10,7 55 0 1,3 167 0 1013,1
28 Casa Rosada 04-09-2026 06:45 10,7 55 0 1,3 167 0 1013,1
27 Casa Rosada 04-09-2026 06:30 10,8 55 0 0,9 195 0 1012,8
26 Casa Rosada 04-09-2026 06:15 10,1 59 0 0,4 101 0 1012,9
25 Casa Rosada 04-09-2026 06:00 10,6 55 0 0 172 0 1012,7
24 Casa Rosada 04-09-2026 05:45 10,6 55 0 0 172 0 1012,7
23 Casa Rosada 04-09-2026 05:30 10,6 56 0 0,9 172 0 1012,7
22 Casa Rosada 04-09-2026 05:15 11,3 54 0 0,4 162 0 1012,7
21 Casa Rosada 04-09-2026 05:00 10,7 57 0 0,9 172 0 1012,5
20 Casa Rosada 04-09-2026 04:45 10,7 57 0 0,9 172 0 1012,5
19 Casa Rosada 04-09-2026 04:30 10,8 57 0 0,4 177 0 1012,6
18 Casa Rosada 04-09-2026 04:15 11 56 0 0,4 181 0 1012,8
17 Casa Rosada 04-09-2026 04:00 11,8 53 0 0,4 145 0 1012,9
16 Casa Rosada 04-09-2026 03:45 11,8 53 0 0,4 145 0 1012,9
15 Casa Rosada 04-09-2026 03:30 12 52 0 0,9 152 0 1013,1
14 Casa Rosada 04-09-2026 03:15 11,9 52 0 0,4 167 0 1013,2
13 Casa Rosada 04-09-2026 03:00 12,1 52 0 0,9 158 0 1013,5
12 Casa Rosada 04-09-2026 02:45 12,1 52 0 0,9 158 0 1013,5
11 Casa Rosada 04-09-2026 02:30 11,8 53 0 0,4 172 0 1013,5
10 Casa Rosada 04-09-2026 02:15 12,1 52 0 0,4 167 0 1013,5
9 Casa Rosada 04-09-2026 02:00 12,4 50 0 0,9 161 0 1013,7
8 Casa Rosada 04-09-2026 01:45 12,4 50 0 0,9 161 0 1013,7
7 Casa Rosada 04-09-2026 01:30 12,8 49 0 0,9 181 0 1013,8
6 Casa Rosada 04-09-2026 01:15 12,8 49 0 0 158 0 1013,9
5 Casa Rosada 04-09-2026 01:00 13,6 46 0 0,4 177 0 1013,8
4 Casa Rosada 04-09-2026 00:45 13,6 46 0 0,4 177 0 1013,8
3 Casa Rosada 04-09-2026 00:30 13,6 46 0 0,9 162 0 1013,8
2 Casa Rosada 04-09-2026 00:15 13,3 48 0 0,9 159 0 1013,8
1 Casa Rosada 04-09-2026 00:00 14,9 43 0 0,4 158 0 1013,6